sensor_id;sensor_type;location;lat;lon;timestamp;pressure;altitude;pressure_sealevel;temperature;humidity
9439;BME280;5176;42.622;25.386;2024-03-02T00:00:52;96822.22;;;8.86;100.00
9439;BME280;5176;42.622;25.386;2024-03-02T00:03:20;96816.88;;;8.88;100.00
9439;BME280;5176;42.622;25.386;2024-03-02T00:05:50;96821.81;;;8.92;100.00
9439;BME280;5176;42.622;25.386;2024-03-02T00:08:23;96817.44;;;8.93;100.00
9439;BME280;5176;42.622;25.386;2024-03-02T00:10:51;96829.00;;;8.89;100.00
9439;BME280;5176;42.622;25.386;2024-03-02T00:13:22;96824.94;;;8.85;100.00
9439;BME280;5176;42.622;25.386;2024-03-02T00:15:52;96830.44;;;8.80;100.00
9439;BME280;5176;42.622;25.386;2024-03-02T00:18:25;96822.69;;;8.79;100.00
9439;BME280;5176;42.622;25.386;2024-03-02T00:20:54;96832.78;;;8.85;100.00
9439;BME280;5176;42.622;25.386;2024-03-02T00:23:23;96834.66;;;8.83;100.00
9439;BME280;5176;42.622;25.386;2024-03-02T00:25:52;96818.06;;;8.69;100.00
9439;BME280;5176;42.622;25.386;2024-03-02T00:28:23;96836.25;;;8.71;100.00
9439;BME280;5176;42.622;25.386;2024-03-02T00:30:54;96826.28;;;8.63;100.00
9439;BME280;5176;42.622;25.386;2024-03-02T00:33:23;96816.66;;;8.64;100.00
9439;BME280;5176;42.622;25.386;2024-03-02T00:35:50;96824.41;;;8.65;100.00
9439;BME280;5176;42.622;25.386;2024-03-02T00:38:18;96821.13;;;8.62;100.00
9439;BME280;5176;42.622;25.386;2024-03-02T00:40:46;96825.06;;;8.55;100.00
9439;BME280;5176;42.622;25.386;2024-03-02T00:46:08;96823.38;;;8.54;100.00
9439;BME280;5176;42.622;25.386;2024-03-02T00:48:35;96830.84;;;8.60;100.00
9439;BME280;5176;42.622;25.386;2024-03-02T00:51:03;96826.34;;;8.62;100.00
9439;BME280;5176;42.622;25.386;2024-03-02T00:53:31;96818.44;;;8.63;100.00
9439;BME280;5176;42.622;25.386;2024-03-02T00:55:59;96815.44;;;8.69;100.00
9439;BME280;5176;42.622;25.386;2024-03-02T00:58:28;96821.31;;;8.73;100.00
9439;BME280;5176;42.622;25.386;2024-03-02T01:00:55;96813.56;;;8.71;100.00
9439;BME280;5176;42.622;25.386;2024-03-02T01:03:24;96811.47;;;8.50;100.00
9439;BME280;5176;42.622;25.386;2024-03-02T01:05:52;96812.97;;;8.39;100.00
9439;BME280;5176;42.622;25.386;2024-03-02T01:08:19;96803.44;;;8.24;100.00
9439;BME280;5176;42.622;25.386;2024-03-02T01:10:47;96799.88;;;8.25;100.00
9439;BME280;5176;42.622;25.386;2024-03-02T01:13:14;96807.25;;;8.18;100.00
9439;BME280;5176;42.622;25.386;2024-03-02T01:15:42;96816.56;;;8.08;100.00
9439;BME280;5176;42.622;25.386;2024-03-02T01:18:09;96815.19;;;8.03;100.00
9439;BME280;5176;42.622;25.386;2024-03-02T01:20:39;96799.44;;;7.90;100.00
9439;BME280;5176;42.622;25.386;2024-03-02T01:23:06;96799.31;;;7.91;100.00
9439;BME280;5176;42.622;25.386;2024-03-02T01:25:34;96802.31;;;7.85;100.00
9439;BME280;5176;42.622;25.386;2024-03-02T01:28:01;96790.72;;;7.75;100.00
9439;BME280;5176;42.622;25.386;2024-03-02T01:30:29;96797.69;;;7.60;100.00
9439;BME280;5176;42.622;25.386;2024-03-02T01:32:56;96790.22;;;7.54;100.00
9439;BME280;5176;42.622;25.386;2024-03-02T01:35:26;96788.66;;;7.52;100.00
9439;BME280;5176;42.622;25.386;2024-03-02T01:37:55;96783.34;;;7.53;100.00
9439;BME280;5176;42.622;25.386;2024-03-02T01:40:23;96793.59;;;7.56;100.00
9439;BME280;5176;42.622;25.386;2024-03-02T01:42:52;96786.69;;;7.55;100.00
9439;BME280;5176;42.622;25.386;2024-03-02T01:45:20;96788.06;;;7.47;100.00
9439;BME280;5176;42.622;25.386;2024-03-02T01:47:48;96786.19;;;7.49;100.00
9439;BME280;5176;42.622;25.386;2024-03-02T01:50:23;96781.75;;;7.51;100.00
9439;BME280;5176;42.622;25.386;2024-03-02T01:52:51;96779.72;;;7.56;100.00
9439;BME280;5176;42.622;25.386;2024-03-02T01:55:20;96772.53;;;7.59;100.00
9439;BME280;5176;42.622;25.386;2024-03-02T01:57:48;96770.41;;;7.66;100.00
9439;BME280;5176;42.622;25.386;2024-03-02T02:00:17;96773.59;;;7.71;100.00
9439;BME280;5176;42.622;25.386;2024-03-02T02:02:45;96773.03;;;7.80;100.00
9439;BME280;5176;42.622;25.386;2024-03-02T02:05:12;96761.47;;;7.84;100.00
9439;BME280;5176;42.622;25.386;2024-03-02T02:07:40;96775.00;;;7.91;100.00
9439;BME280;5176;42.622;25.386;2024-03-02T02:10:09;96783.28;;;7.83;100.00
9439;BME280;5176;42.622;25.386;2024-03-02T02:12:38;96773.69;;;7.84;100.00
9439;BME280;5176;42.622;25.386;2024-03-02T02:15:26;96780.22;;;7.91;100.00
9439;BME280;5176;42.622;25.386;2024-03-02T02:17:54;96778.19;;;7.96;100.00
9439;BME280;5176;42.622;25.386;2024-03-02T02:20:24;96773.50;;;8.01;100.00
9439;BME280;5176;42.622;25.386;2024-03-02T02:22:59;96687.88;;;7.51;100.00
9439;BME280;5176;42.622;25.386;2024-03-02T02:25:28;96783.75;;;8.04;100.00
9439;BME280;5176;42.622;25.386;2024-03-02T02:27:56;96777.59;;;8.05;100.00
9439;BME280;5176;42.622;25.386;2024-03-02T02:30:25;96792.81;;;7.99;100.00
9439;BME280;5176;42.622;25.386;2024-03-02T02:32:53;96797.56;;;7.92;100.00
9439;BME280;5176;42.622;25.386;2024-03-02T02:35:19;96797.28;;;7.82;100.00
9439;BME280;5176;42.622;25.386;2024-03-02T02:37:47;96788.41;;;7.85;100.00
9439;BME280;5176;42.622;25.386;2024-03-02T02:40:17;96791.19;;;7.82;100.00
9439;BME280;5176;42.622;25.386;2024-03-02T02:42:45;96779.91;;;7.81;100.00
9439;BME280;5176;42.622;25.386;2024-03-02T02:45:13;96779.38;;;7.76;100.00
9439;BME280;5176;42.622;25.386;2024-03-02T02:47:40;96788.31;;;7.72;100.00
9439;BME280;5176;42.622;25.386;2024-03-02T02:50:08;96779.06;;;7.67;100.00
9439;BME280;5176;42.622;25.386;2024-03-02T02:52:37;96781.50;;;7.70;100.00
9439;BME280;5176;42.622;25.386;2024-03-02T02:55:07;96787.22;;;7.76;100.00
9439;BME280;5176;42.622;25.386;2024-03-02T02:57:36;96785.69;;;7.72;100.00
9439;BME280;5176;42.622;25.386;2024-03-02T03:00:06;96783.28;;;7.69;100.00
9439;BME280;5176;42.622;25.386;2024-03-02T03:02:37;96788.50;;;7.69;100.00
9439;BME280;5176;42.622;25.386;2024-03-02T03:05:07;96795.66;;;7.65;100.00
9439;BME280;5176;42.622;25.386;2024-03-02T03:07:35;96790.19;;;7.70;100.00
9439;BME280;5176;42.622;25.386;2024-03-02T03:10:04;96792.41;;;7.76;100.00
9439;BME280;5176;42.622;25.386;2024-03-02T03:12:32;96790.66;;;7.77;100.00
9439;BME280;5176;42.622;25.386;2024-03-02T03:15:01;96796.22;;;7.71;100.00
9439;BME280;5176;42.622;25.386;2024-03-02T03:17:30;96789.63;;;7.79;100.00
9439;BME280;5176;42.622;25.386;2024-03-02T03:19:57;96786.38;;;7.76;100.00
9439;BME280;5176;42.622;25.386;2024-03-02T03:22:24;96796.97;;;7.73;100.00
9439;BME280;5176;42.622;25.386;2024-03-02T03:24:52;96792.50;;;7.75;100.00
9439;BME280;5176;42.622;25.386;2024-03-02T03:27:19;96796.72;;;7.77;100.00
9439;BME280;5176;42.622;25.386;2024-03-02T03:29:46;96796.59;;;7.79;100.00
9439;BME280;5176;42.622;25.386;2024-03-02T03:32:15;96796.16;;;7.86;100.00
9439;BME280;5176;42.622;25.386;2024-03-02T03:34:43;96790.81;;;7.88;100.00
9439;BME280;5176;42.622;25.386;2024-03-02T03:37:11;96792.78;;;7.84;100.00
9439;BME280;5176;42.622;25.386;2024-03-02T03:39:38;96785.50;;;7.75;100.00
9439;BME280;5176;42.622;25.386;2024-03-02T03:42:06;96783.66;;;7.77;100.00
9439;BME280;5176;42.622;25.386;2024-03-02T03:44:33;96784.28;;;7.81;100.00
9439;BME280;5176;42.622;25.386;2024-03-02T03:47:00;96783.19;;;7.85;100.00
9439;BME280;5176;42.622;25.386;2024-03-02T03:49:29;96785.59;;;7.74;100.00
9439;BME280;5176;42.622;25.386;2024-03-02T03:51:57;96776.00;;;7.74;100.00
9439;BME280;5176;42.622;25.386;2024-03-02T03:54:24;96783.34;;;7.53;100.00
9439;BME280;5176;42.622;25.386;2024-03-02T03:56:52;96778.06;;;7.69;100.00
9439;BME280;5176;42.622;25.386;2024-03-02T03:59:19;96770.50;;;7.79;100.00
9439;BME280;5176;42.622;25.386;2024-03-02T04:01:46;96768.47;;;7.84;100.00
9439;BME280;5176;42.622;25.386;2024-03-02T04:04:14;96767.28;;;7.89;100.00
9439;BME280;5176;42.622;25.386;2024-03-02T04:06:42;96763.44;;;7.95;100.00
9439;BME280;5176;42.622;25.386;2024-03-02T04:09:10;96762.06;;;7.89;100.00
9439;BME280;5176;42.622;25.386;2024-03-02T04:11:37;96769.31;;;7.99;100.00
9439;BME280;5176;42.622;25.386;2024-03-02T04:14:04;96771.66;;;8.03;100.00
9439;BME280;5176;42.622;25.386;2024-03-02T04:16:32;96783.47;;;8.09;100.00
9439;BME280;5176;42.622;25.386;2024-03-02T04:19:00;96784.13;;;8.12;100.00
9439;BME280;5176;42.622;25.386;2024-03-02T04:21:27;96781.72;;;8.09;100.00
9439;BME280;5176;42.622;25.386;2024-03-02T04:23:56;96773.78;;;8.11;100.00
9439;BME280;5176;42.622;25.386;2024-03-02T04:26:24;96785.91;;;8.12;100.00
9439;BME280;5176;42.622;25.386;2024-03-02T04:28:52;96779.84;;;8.11;100.00
9439;BME280;5176;42.622;25.386;2024-03-02T04:31:19;96782.34;;;8.13;100.00
9439;BME280;5176;42.622;25.386;2024-03-02T04:33:47;96780.13;;;8.07;100.00
9439;BME280;5176;42.622;25.386;2024-03-02T04:36:14;96787.84;;;8.08;100.00
9439;BME280;5176;42.622;25.386;2024-03-02T04:38:41;96790.47;;;8.08;100.00
9439;BME280;5176;42.622;25.386;2024-03-02T04:41:10;96795.97;;;8.04;100.00
9439;BME280;5176;42.622;25.386;2024-03-02T04:43:37;96788.88;;;8.06;100.00
9439;BME280;5176;42.622;25.386;2024-03-02T04:46:05;96787.38;;;8.02;100.00
9439;BME280;5176;42.622;25.386;2024-03-02T04:48:32;96782.94;;;7.89;100.00
9439;BME280;5176;42.622;25.386;2024-03-02T04:51:00;96782.53;;;7.81;100.00
9439;BME280;5176;42.622;25.386;2024-03-02T04:53:27;96789.16;;;7.87;100.00
9439;BME280;5176;42.622;25.386;2024-03-02T04:55:55;96785.34;;;7.92;100.00
9439;BME280;5176;42.622;25.386;2024-03-02T04:58:55;96786.66;;;7.85;100.00
9439;BME280;5176;42.622;25.386;2024-03-02T05:01:22;96788.50;;;7.83;100.00
9439;BME280;5176;42.622;25.386;2024-03-02T05:03:50;96792.50;;;7.89;100.00
9439;BME280;5176;42.622;25.386;2024-03-02T05:06:17;96797.34;;;7.95;100.00
9439;BME280;5176;42.622;25.386;2024-03-02T05:08:44;96789.44;;;7.97;100.00
9439;BME280;5176;42.622;25.386;2024-03-02T05:11:13;96795.16;;;8.03;100.00
9439;BME280;5176;42.622;25.386;2024-03-02T05:14:15;96781.06;;;8.06;100.00
9439;BME280;5176;42.622;25.386;2024-03-02T05:16:43;96771.81;;;8.14;100.00
9439;BME280;5176;42.622;25.386;2024-03-02T05:19:10;96770.69;;;8.18;100.00
9439;BME280;5176;42.622;25.386;2024-03-02T05:21:37;96781.72;;;8.24;100.00
9439;BME280;5176;42.622;25.386;2024-03-02T05:24:05;96797.38;;;8.24;100.00
9439;BME280;5176;42.622;25.386;2024-03-02T05:26:32;96787.31;;;8.17;100.00
9439;BME280;5176;42.622;25.386;2024-03-02T05:28:59;96794.75;;;8.24;100.00
9439;BME280;5176;42.622;25.386;2024-03-02T05:31:28;96808.09;;;8.19;100.00
9439;BME280;5176;42.622;25.386;2024-03-02T05:33:55;96807.41;;;8.15;100.00
9439;BME280;5176;42.622;25.386;2024-03-02T05:36:23;96814.53;;;8.13;100.00
9439;BME280;5176;42.622;25.386;2024-03-02T05:38:50;96791.28;;;8.09;100.00
9439;BME280;5176;42.622;25.386;2024-03-02T05:41:17;96813.59;;;8.14;100.00
9439;BME280;5176;42.622;25.386;2024-03-02T05:43:45;96806.22;;;8.21;100.00
9439;BME280;5176;42.622;25.386;2024-03-02T05:46:12;96810.22;;;8.27;100.00
9439;BME280;5176;42.622;25.386;2024-03-02T05:48:41;96808.00;;;8.20;100.00
9439;BME280;5176;42.622;25.386;2024-03-02T05:51:08;96818.63;;;8.17;100.00
9439;BME280;5176;42.622;25.386;2024-03-02T05:53:35;96807.16;;;8.20;100.00
9439;BME280;5176;42.622;25.386;2024-03-02T05:56:04;96807.25;;;8.18;100.00
9439;BME280;5176;42.622;25.386;2024-03-02T05:58:34;96821.25;;;8.17;100.00
9439;BME280;5176;42.622;25.386;2024-03-02T06:01:15;96813.78;;;8.26;100.00
9439;BME280;5176;42.622;25.386;2024-03-02T06:03:45;96809.59;;;8.23;100.00
9439;BME280;5176;42.622;25.386;2024-03-02T06:06:12;96823.75;;;8.19;100.00
9439;BME280;5176;42.622;25.386;2024-03-02T06:08:40;96832.63;;;8.16;100.00
9439;BME280;5176;42.622;25.386;2024-03-02T06:11:07;96815.09;;;8.18;100.00
9439;BME280;5176;42.622;25.386;2024-03-02T06:13:34;96818.72;;;8.16;100.00
9439;BME280;5176;42.622;25.386;2024-03-02T06:16:02;96792.63;;;8.16;100.00
9439;BME280;5176;42.622;25.386;2024-03-02T06:18:29;96803.06;;;8.16;100.00
9439;BME280;5176;42.622;25.386;2024-03-02T06:20:58;96808.00;;;8.06;100.00
9439;BME280;5176;42.622;25.386;2024-03-02T06:23:26;96802.97;;;8.03;100.00
9439;BME280;5176;42.622;25.386;2024-03-02T06:25:54;96785.72;;;8.01;100.00
9439;BME280;5176;42.622;25.386;2024-03-02T06:28:21;96789.88;;;7.89;100.00
9439;BME280;5176;42.622;25.386;2024-03-02T06:30:48;96785.72;;;7.86;100.00
9439;BME280;5176;42.622;25.386;2024-03-02T06:33:16;96792.50;;;7.75;100.00
9439;BME280;5176;42.622;25.386;2024-03-02T06:35:44;96792.69;;;7.72;100.00
9439;BME280;5176;42.622;25.386;2024-03-02T06:38:13;96769.31;;;7.70;100.00
9439;BME280;5176;42.622;25.386;2024-03-02T06:40:40;96774.31;;;7.59;100.00
9439;BME280;5176;42.622;25.386;2024-03-02T06:43:07;96804.31;;;7.66;100.00
9439;BME280;5176;42.622;25.386;2024-03-02T06:45:35;96800.59;;;7.70;100.00
9439;BME280;5176;42.622;25.386;2024-03-02T06:48:03;96796.72;;;7.77;100.00
9439;BME280;5176;42.622;25.386;2024-03-02T06:50:30;96821.13;;;7.76;100.00
9439;BME280;5176;42.622;25.386;2024-03-02T06:52:58;96804.78;;;7.73;100.00
9439;BME280;5176;42.622;25.386;2024-03-02T06:55:27;96810.22;;;7.84;100.00
9439;BME280;5176;42.622;25.386;2024-03-02T06:57:54;96829.81;;;7.91;100.00
9439;BME280;5176;42.622;25.386;2024-03-02T07:00:21;96811.44;;;7.92;100.00
9439;BME280;5176;42.622;25.386;2024-03-02T07:02:50;96815.63;;;7.95;100.00
9439;BME280;5176;42.622;25.386;2024-03-02T07:05:17;96817.59;;;7.91;100.00
9439;BME280;5176;42.622;25.386;2024-03-02T07:07:45;96807.06;;;7.93;100.00
9439;BME280;5176;42.622;25.386;2024-03-02T07:10:12;96810.13;;;7.85;100.00
9439;BME280;5176;42.622;25.386;2024-03-02T07:12:41;96826.25;;;7.92;100.00
9439;BME280;5176;42.622;25.386;2024-03-02T07:15:09;96814.63;;;7.98;100.00
9439;BME280;5176;42.622;25.386;2024-03-02T07:17:54;96792.38;;;7.62;100.00
9439;BME280;5176;42.622;25.386;2024-03-02T07:20:22;96799.84;;;7.68;100.00
9439;BME280;5176;42.622;25.386;2024-03-02T07:22:49;96807.13;;;7.77;100.00
9439;BME280;5176;42.622;25.386;2024-03-02T07:25:16;96791.88;;;7.85;100.00
9439;BME280;5176;42.622;25.386;2024-03-02T07:27:45;96786.44;;;7.88;100.00
9439;BME280;5176;42.622;25.386;2024-03-02T07:30:14;96793.16;;;7.92;100.00
9439;BME280;5176;42.622;25.386;2024-03-02T07:32:43;96772.19;;;7.94;100.00
9439;BME280;5176;42.622;25.386;2024-03-02T07:35:12;96774.06;;;7.92;100.00
9439;BME280;5176;42.622;25.386;2024-03-02T07:37:41;96782.63;;;7.94;100.00
9439;BME280;5176;42.622;25.386;2024-03-02T07:40:09;96770.25;;;7.98;100.00
9439;BME280;5176;42.622;25.386;2024-03-02T07:42:38;96792.34;;;8.06;100.00
9439;BME280;5176;42.622;25.386;2024-03-02T07:45:08;96782.47;;;8.11;100.00
9439;BME280;5176;42.622;25.386;2024-03-02T07:47:35;96789.91;;;8.03;100.00
9439;BME280;5176;42.622;25.386;2024-03-02T07:50:03;96801.94;;;8.06;100.00
9439;BME280;5176;42.622;25.386;2024-03-02T07:52:32;96805.75;;;8.14;100.00
9439;BME280;5176;42.622;25.386;2024-03-02T07:54:59;96808.66;;;8.24;100.00
9439;BME280;5176;42.622;25.386;2024-03-02T07:57:27;96819.94;;;8.25;100.00
9439;BME280;5176;42.622;25.386;2024-03-02T07:59:54;96821.41;;;8.29;100.00
9439;BME280;5176;42.622;25.386;2024-03-02T08:02:23;96793.25;;;8.34;100.00
9439;BME280;5176;42.622;25.386;2024-03-02T08:04:51;96795.41;;;8.41;100.00
9439;BME280;5176;42.622;25.386;2024-03-02T08:07:18;96759.41;;;8.18;100.00
9439;BME280;5176;42.622;25.386;2024-03-02T08:09:46;96792.91;;;8.40;100.00
9439;BME280;5176;42.622;25.386;2024-03-02T08:12:13;96781.41;;;8.42;100.00
9439;BME280;5176;42.622;25.386;2024-03-02T08:14:40;96784.91;;;8.43;100.00
9439;BME280;5176;42.622;25.386;2024-03-02T08:17:08;96789.34;;;8.41;100.00
9439;BME280;5176;42.622;25.386;2024-03-02T08:19:38;96809.25;;;8.43;100.00
9439;BME280;5176;42.622;25.386;2024-03-02T08:22:06;96813.03;;;8.52;100.00
9439;BME280;5176;42.622;25.386;2024-03-02T08:24:33;96793.44;;;8.59;100.00
9439;BME280;5176;42.622;25.386;2024-03-02T08:27:01;96810.50;;;8.65;100.00
9439;BME280;5176;42.622;25.386;2024-03-02T08:29:29;96813.94;;;8.65;100.00
9439;BME280;5176;42.622;25.386;2024-03-02T08:31:57;96807.78;;;8.66;100.00
9439;BME280;5176;42.622;25.386;2024-03-02T08:34:24;96804.34;;;8.66;100.00
9439;BME280;5176;42.622;25.386;2024-03-02T08:36:53;96799.66;;;8.71;100.00
9439;BME280;5176;42.622;25.386;2024-03-02T08:39:20;96806.91;;;8.80;100.00
9439;BME280;5176;42.622;25.386;2024-03-02T08:41:49;96802.91;;;8.74;100.00
9439;BME280;5176;42.622;25.386;2024-03-02T08:44:17;96801.91;;;8.77;100.00
9439;BME280;5176;42.622;25.386;2024-03-02T08:46:44;96788.50;;;8.82;100.00
9439;BME280;5176;42.622;25.386;2024-03-02T08:49:12;96791.41;;;8.91;100.00
9439;BME280;5176;42.622;25.386;2024-03-02T08:51:39;96815.94;;;8.89;100.00
9439;BME280;5176;42.622;25.386;2024-03-02T08:54:08;96826.63;;;8.71;100.00
9439;BME280;5176;42.622;25.386;2024-03-02T08:56:36;96821.66;;;8.81;100.00
9439;BME280;5176;42.622;25.386;2024-03-02T08:59:03;96791.91;;;8.84;100.00
9439;BME280;5176;42.622;25.386;2024-03-02T09:01:31;96770.22;;;8.82;100.00
9439;BME280;5176;42.622;25.386;2024-03-02T09:03:58;96794.25;;;9.01;100.00
9439;BME280;5176;42.622;25.386;2024-03-02T09:06:25;96781.00;;;9.04;100.00
9439;BME280;5176;42.622;25.386;2024-03-02T09:08:53;96777.63;;;9.02;100.00
9439;BME280;5176;42.622;25.386;2024-03-02T09:11:22;96780.38;;;9.13;100.00
9439;BME280;5176;42.622;25.386;2024-03-02T09:13:49;96795.47;;;9.22;100.00
9439;BME280;5176;42.622;25.386;2024-03-02T09:16:17;96819.44;;;9.29;100.00
9439;BME280;5176;42.622;25.386;2024-03-02T09:18:44;96801.44;;;9.24;100.00
9439;BME280;5176;42.622;25.386;2024-03-02T09:21:12;96800.09;;;9.32;100.00
9439;BME280;5176;42.622;25.386;2024-03-02T09:23:39;96779.53;;;9.13;100.00
9439;BME280;5176;42.622;25.386;2024-03-02T09:26:07;96785.94;;;9.21;100.00
9439;BME280;5176;42.622;25.386;2024-03-02T09:28:36;96766.22;;;9.30;100.00
9439;BME280;5176;42.622;25.386;2024-03-02T09:31:04;96786.75;;;9.36;100.00
9439;BME280;5176;42.622;25.386;2024-03-02T09:33:31;96793.00;;;9.34;100.00
9439;BME280;5176;42.622;25.386;2024-03-02T09:35:59;96758.66;;;9.25;100.00
9439;BME280;5176;42.622;25.386;2024-03-02T09:38:26;96802.03;;;9.55;100.00
9439;BME280;5176;42.622;25.386;2024-03-02T09:40:53;96776.69;;;9.55;100.00
9439;BME280;5176;42.622;25.386;2024-03-02T09:43:21;96790.63;;;9.69;100.00
9439;BME280;5176;42.622;25.386;2024-03-02T09:45:50;96793.88;;;9.60;100.00
9439;BME280;5176;42.622;25.386;2024-03-02T09:48:18;96769.28;;;9.62;100.00
9439;BME280;5176;42.622;25.386;2024-03-02T09:50:46;96771.47;;;9.68;100.00
9439;BME280;5176;42.622;25.386;2024-03-02T09:53:14;96762.38;;;9.74;100.00
9439;BME280;5176;42.622;25.386;2024-03-02T09:55:45;96752.75;;;9.87;100.00
9439;BME280;5176;42.622;25.386;2024-03-02T09:58:13;96750.00;;;10.01;100.00
9439;BME280;5176;42.622;25.386;2024-03-02T10:00:40;96748.31;;;10.13;100.00
9439;BME280;5176;42.622;25.386;2024-03-02T10:03:13;96759.44;;;10.29;100.00
9439;BME280;5176;42.622;25.386;2024-03-02T10:05:40;96748.84;;;10.44;100.00
9439;BME280;5176;42.622;25.386;2024-03-02T10:08:08;96761.59;;;10.48;100.00
9439;BME280;5176;42.622;25.386;2024-03-02T10:10:36;96788.03;;;10.45;100.00
9439;BME280;5176;42.622;25.386;2024-03-02T10:13:06;96772.00;;;10.37;100.00
9439;BME280;5176;42.622;25.386;2024-03-02T10:15:34;96774.84;;;10.34;100.00
9439;BME280;5176;42.622;25.386;2024-03-02T10:18:03;96764.34;;;10.34;100.00
9439;BME280;5176;42.622;25.386;2024-03-02T10:20:32;96764.47;;;10.32;100.00
9439;BME280;5176;42.622;25.386;2024-03-02T10:23:10;96768.25;;;10.28;100.00
9439;BME280;5176;42.622;25.386;2024-03-02T10:25:38;96760.78;;;10.22;100.00
9439;BME280;5176;42.622;25.386;2024-03-02T10:28:05;96760.72;;;10.24;100.00
9439;BME280;5176;42.622;25.386;2024-03-02T10:30:33;96772.53;;;10.29;100.00
9439;BME280;5176;42.622;25.386;2024-03-02T10:33:01;96767.59;;;10.38;100.00
9439;BME280;5176;42.622;25.386;2024-03-02T10:35:29;96763.81;;;10.42;100.00
9439;BME280;5176;42.622;25.386;2024-03-02T10:38:00;96765.44;;;10.55;100.00
9439;BME280;5176;42.622;25.386;2024-03-02T10:40:30;96764.41;;;10.58;100.00
9439;BME280;5176;42.622;25.386;2024-03-02T10:42:57;96772.34;;;10.56;100.00
9439;BME280;5176;42.622;25.386;2024-03-02T10:45:26;96762.41;;;10.61;100.00
9439;BME280;5176;42.622;25.386;2024-03-02T10:47:54;96760.22;;;10.55;100.00
9439;BME280;5176;42.622;25.386;2024-03-02T10:50:23;96768.00;;;10.57;100.00
9439;BME280;5176;42.622;25.386;2024-03-02T10:52:51;96765.13;;;10.60;100.00
9439;BME280;5176;42.622;25.386;2024-03-02T10:55:20;96757.78;;;10.65;100.00
9439;BME280;5176;42.622;25.386;2024-03-02T10:57:50;96755.47;;;10.60;100.00
9439;BME280;5176;42.622;25.386;2024-03-02T11:00:20;96744.88;;;10.62;100.00
9439;BME280;5176;42.622;25.386;2024-03-02T11:02:51;96743.66;;;10.55;100.00
9439;BME280;5176;42.622;25.386;2024-03-02T11:05:30;96739.63;;;10.62;100.00
9439;BME280;5176;42.622;25.386;2024-03-02T11:08:01;96741.09;;;10.66;100.00
9439;BME280;5176;42.622;25.386;2024-03-02T11:10:34;96730.56;;;10.79;100.00
9439;BME280;5176;42.622;25.386;2024-03-02T11:13:05;96735.97;;;10.88;100.00
9439;BME280;5176;42.622;25.386;2024-03-02T11:15:34;96735.25;;;10.86;100.00
9439;BME280;5176;42.622;25.386;2024-03-02T11:18:04;96734.25;;;11.00;100.00
9439;BME280;5176;42.622;25.386;2024-03-02T11:20:36;96731.75;;;11.10;100.00
9439;BME280;5176;42.622;25.386;2024-03-02T11:23:08;96735.13;;;11.12;100.00
9439;BME280;5176;42.622;25.386;2024-03-02T11:25:37;96732.44;;;11.25;100.00
9439;BME280;5176;42.622;25.386;2024-03-02T11:28:06;96722.66;;;11.27;100.00
9439;BME280;5176;42.622;25.386;2024-03-02T11:30:51;96714.47;;;11.31;100.00
9439;BME280;5176;42.622;25.386;2024-03-02T11:33:26;96717.75;;;11.22;100.00
9439;BME280;5176;42.622;25.386;2024-03-02T11:35:56;96717.41;;;11.27;100.00
9439;BME280;5176;42.622;25.386;2024-03-02T11:38:34;96718.97;;;11.29;100.00
9439;BME280;5176;42.622;25.386;2024-03-02T11:41:06;96720.75;;;11.29;100.00
9439;BME280;5176;42.622;25.386;2024-03-02T11:43:37;96716.13;;;11.32;100.00
9439;BME280;5176;42.622;25.386;2024-03-02T11:46:06;96707.16;;;11.35;100.00
9439;BME280;5176;42.622;25.386;2024-03-02T11:48:35;96715.22;;;11.44;100.00
9439;BME280;5176;42.622;25.386;2024-03-02T11:51:04;96716.03;;;11.45;98.08
9439;BME280;5176;42.622;25.386;2024-03-02T11:53:31;96717.47;;;11.49;96.83
9439;BME280;5176;42.622;25.386;2024-03-02T11:56:03;96710.91;;;11.55;97.22
9439;BME280;5176;42.622;25.386;2024-03-02T11:58:36;96699.59;;;11.65;97.03
9439;BME280;5176;42.622;25.386;2024-03-02T12:01:04;96708.06;;;11.69;96.54
9439;BME280;5176;42.622;25.386;2024-03-02T12:03:32;96696.66;;;11.81;96.79
9439;BME280;5176;42.622;25.386;2024-03-02T12:06:01;96688.78;;;11.92;95.87
9439;BME280;5176;42.622;25.386;2024-03-02T12:08:29;96682.59;;;11.93;95.02
9439;BME280;5176;42.622;25.386;2024-03-02T12:10:59;96690.13;;;11.98;94.36
9439;BME280;5176;42.622;25.386;2024-03-02T12:13:29;96680.06;;;12.03;93.23
9439;BME280;5176;42.622;25.386;2024-03-02T12:15:56;96679.56;;;12.20;93.36
9439;BME280;5176;42.622;25.386;2024-03-02T12:18:24;96681.00;;;12.24;91.86
9439;BME280;5176;42.622;25.386;2024-03-02T12:20:52;96678.94;;;12.39;91.22
9439;BME280;5176;42.622;25.386;2024-03-02T12:23:23;96676.19;;;12.52;91.72
9439;BME280;5176;42.622;25.386;2024-03-02T12:25:50;96673.13;;;12.68;90.55
9439;BME280;5176;42.622;25.386;2024-03-02T12:28:19;96678.38;;;12.79;88.17
9439;BME280;5176;42.622;25.386;2024-03-02T12:30:48;96678.69;;;12.86;87.09
9439;BME280;5176;42.622;25.386;2024-03-02T12:33:16;96672.13;;;12.91;85.85
9439;BME280;5176;42.622;25.386;2024-03-02T12:35:44;96677.94;;;12.95;84.90
9439;BME280;5176;42.622;25.386;2024-03-02T12:38:12;96680.19;;;12.99;83.92
9439;BME280;5176;42.622;25.386;2024-03-02T12:40:39;96686.28;;;13.00;83.61
9439;BME280;5176;42.622;25.386;2024-03-02T12:43:06;96677.94;;;12.95;82.71
9439;BME280;5176;42.622;25.386;2024-03-02T12:45:34;96673.69;;;13.03;83.01
9439;BME280;5176;42.622;25.386;2024-03-02T12:48:04;96676.34;;;13.03;82.73
9439;BME280;5176;42.622;25.386;2024-03-02T12:50:33;96692.06;;;12.94;83.04
9439;BME280;5176;42.622;25.386;2024-03-02T12:53:00;96689.44;;;12.94;82.38
9439;BME280;5176;42.622;25.386;2024-03-02T12:55:28;96690.13;;;12.96;81.95
9439;BME280;5176;42.622;25.386;2024-03-02T12:57:56;96681.53;;;12.94;81.85
9439;BME280;5176;42.622;25.386;2024-03-02T13:00:27;96681.41;;;12.95;82.73
9439;BME280;5176;42.622;25.386;2024-03-02T13:02:58;96677.69;;;12.98;83.32
9439;BME280;5176;42.622;25.386;2024-03-02T13:05:31;96684.75;;;12.97;85.23
9439;BME280;5176;42.622;25.386;2024-03-02T13:07:59;96677.38;;;12.91;85.84
9439;BME280;5176;42.622;25.386;2024-03-02T13:10:29;96686.19;;;12.90;86.57
9439;BME280;5176;42.622;25.386;2024-03-02T13:12:56;96690.75;;;12.88;87.28
9439;BME280;5176;42.622;25.386;2024-03-02T13:15:25;96686.09;;;12.92;88.16
9439;BME280;5176;42.622;25.386;2024-03-02T13:17:53;96691.34;;;12.92;86.32
9439;BME280;5176;42.622;25.386;2024-03-02T13:20:20;96693.59;;;12.96;86.14